createdAt,value
2023-03-11T00:00:08.576Z,5
2023-03-11T00:10:08.661Z,5
2023-03-11T00:20:08.574Z,5
2023-03-11T00:30:08.648Z,5
2023-03-11T00:40:08.579Z,5
2023-03-11T00:50:08.630Z,4.5
2023-03-11T01:00:08.745Z,4.5
2023-03-11T01:10:08.637Z,4.5
2023-03-11T01:20:08.774Z,4.5
2023-03-11T01:30:08.640Z,4.5
2023-03-11T01:40:08.738Z,4.5
2023-03-11T01:50:08.620Z,3.5
2023-03-11T02:00:08.743Z,4
2023-03-11T02:10:08.628Z,3.5
2023-03-11T02:20:08.743Z,3.5
2023-03-11T02:30:08.811Z,3.5
2023-03-11T02:40:08.723Z,3.5
2023-03-11T02:50:08.787Z,3.5
2023-03-11T03:00:08.763Z,3.5
2023-03-11T03:10:08.809Z,3.5
2023-03-11T03:20:08.724Z,3.5
2023-03-11T03:30:08.785Z,3.5
2023-03-11T03:40:08.911Z,2.5
2023-03-11T03:50:08.790Z,2.5
2023-03-11T04:00:08.921Z,2.5
2023-03-11T04:10:08.782Z,2.5
2023-03-11T04:20:08.893Z,2.5
2023-03-11T04:30:08.769Z,1.5
2023-03-11T04:40:08.889Z,2
2023-03-11T04:50:08.769Z,2
2023-03-11T05:00:08.896Z,1.5
2023-03-11T05:10:08.967Z,1.5
2023-03-11T05:20:08.879Z,1.5
2023-03-11T05:30:08.970Z,2
2023-03-11T05:40:08.902Z,1.5
2023-03-11T05:50:08.979Z,1.5
2023-03-11T06:00:08.856Z,2
2023-03-11T06:10:08.929Z,2
2023-03-11T06:20:08.908Z,1.5
2023-03-11T06:30:08.949Z,2
2023-03-11T06:40:09.073Z,2
2023-03-11T06:50:08.923Z,2
2023-03-11T07:00:09.057Z,2
2023-03-11T07:10:08.962Z,2
2023-03-11T07:20:09.064Z,2
2023-03-11T07:30:08.947Z,3
2023-03-11T07:40:09.045Z,3
2023-03-11T07:50:09.134Z,4.5
2023-03-11T08:00:09.058Z,5
2023-03-11T08:10:09.142Z,6
2023-03-11T08:20:09.050Z,5.5
2023-03-11T08:30:09.145Z,4.5
2023-03-11T08:40:09.022Z,5
2023-03-11T08:50:09.116Z,11
2023-03-11T09:00:09.892Z,11
2023-03-11T09:10:09.142Z,13
2023-03-11T09:20:09.233Z,12.5
2023-03-11T09:30:09.111Z,11
2023-03-11T09:40:09.223Z,11
2023-03-11T09:50:09.156Z,9
2023-03-11T10:00:09.266Z,10
2023-03-11T10:10:09.127Z,9.5
2023-03-11T10:20:09.238Z,9.5
2023-03-11T10:30:09.150Z,9
2023-03-11T10:40:09.282Z,9.5
2023-03-11T10:50:09.346Z,9.5
2023-03-11T11:00:09.943Z,9.5
2023-03-11T11:10:10.211Z,9.5
2023-03-11T11:20:09.267Z,9
2023-03-11T11:30:10.381Z,8.5
2023-03-11T11:40:11.075Z,9
2023-03-11T11:50:09.309Z,9.5
2023-03-11T12:00:09.271Z,10
2023-03-11T12:10:21.605Z,10.5
2023-03-11T12:20:09.278Z,9.5
2023-03-11T12:30:09.406Z,10
2023-03-11T12:40:09.247Z,10.5
2023-03-11T12:50:09.397Z,11
2023-03-11T13:00:09.364Z,11
2023-03-11T13:10:09.351Z,11
2023-03-11T13:20:09.297Z,10.5
2023-03-11T13:30:09.415Z,10.5
2023-03-11T13:40:09.566Z,9.5
2023-03-11T13:50:09.411Z,9.5
2023-03-11T14:00:09.565Z,9
2023-03-11T14:10:09.394Z,8.5
2023-03-11T14:20:09.756Z,8.5
2023-03-11T14:30:09.434Z,7.5
2023-03-11T14:40:09.578Z,7.5
2023-03-11T14:50:09.400Z,7.5
2023-03-11T15:00:09.559Z,6.5
2023-03-11T15:10:09.405Z,5.5
2023-03-11T15:20:09.541Z,5.5
2023-03-11T15:30:09.661Z,5.5
2023-03-11T15:40:09.506Z,4.5
2023-03-11T15:50:13.079Z,4.5
2023-03-11T16:00:09.531Z,5
2023-03-11T16:10:09.624Z,4.5
2023-03-11T16:20:09.508Z,4
2023-03-11T16:30:09.566Z,4
2023-03-11T16:40:09.479Z,3.5
2023-03-11T16:50:09.585Z,3
2023-03-11T17:00:09.852Z,2.5
2023-03-11T17:10:09.629Z,2.5
2023-03-11T17:20:09.678Z,1.5
2023-03-11T17:30:09.521Z,2
2023-03-11T17:40:09.664Z,1.5
2023-03-11T17:50:09.742Z,2
2023-03-11T18:00:09.629Z,1.5
2023-03-11T18:10:09.740Z,1.5
2023-03-11T18:20:09.618Z,1.5
2023-03-11T18:30:09.715Z,1.5
2023-03-11T18:40:09.714Z,1.5
2023-03-11T18:50:09.738Z,1.5
2023-03-11T19:00:09.865Z,1.5
2023-03-11T19:10:09.707Z,1.5
2023-03-11T19:20:09.845Z,1.5
2023-03-11T19:30:09.756Z,1.5
2023-03-11T19:40:11.438Z,1.5
2023-03-11T19:50:09.775Z,1.5
2023-03-11T20:00:09.837Z,1.5
2023-03-11T20:10:09.719Z,1.5
2023-03-11T20:20:12.073Z,1.5
2023-03-11T20:30:09.977Z,1.5
2023-03-11T20:40:09.954Z,1.5
2023-03-11T20:50:09.778Z,2
2023-03-11T21:00:09.988Z,1.5
2023-03-11T21:10:09.857Z,1.5
2023-03-11T21:20:10.038Z,2
2023-03-11T21:30:10.036Z,2
2023-03-11T21:40:10.098Z,1.5
2023-03-11T21:50:09.985Z,1.5
2023-03-11T22:00:10.125Z,1.5
2023-03-11T22:10:10.217Z,1.5
2023-03-11T22:20:10.041Z,2.5
2023-03-11T22:30:09.953Z,3.5
2023-03-11T22:40:09.905Z,2
2023-03-11T22:50:09.994Z,1.5
2023-03-11T23:00:10.122Z,1.5
2023-03-11T23:10:09.938Z,3
2023-03-11T23:20:10.080Z,3.5
2023-03-11T23:30:09.977Z,5
2023-03-11T23:40:10.104Z,4.5
2023-03-11T23:50:09.964Z,5
